首页
METAR-TAF:

METAR-TAF

机场 :

彭德-雅皮特國際機場

皮特尔角城, 瓜德罗普

纬度: 16-16N, 经度: 061-31W, 海拔: 11米

当前天气观测

该预报发布于22分钟前的16:30 UTC
风速9节,风向南转南东,在东转东南之间变化
温度 28°C
湿度 70%
气压 1014 hPa
能见度10公里或以上
散云层高于2800英尺
多云层高于3300英尺
多云层高于3900英尺

METAR: TFFR 241630Z AUTO 15009KT 120V180 9999 SCT028 BKN033 BKN039 28/22 Q1014 TEMPO 3000 SHRA SCT020TCU

时间: 12:52 (16:52 UTC)

预报

该预报发布于5小时和52分钟前的11:00 UTC
预报有效从24日的 12点(UTC)到 25日的 12点(UTC)
风速10节,风向南转南东
能见度10公里或以上
散云层高于1500英尺
多云层高于3000英尺
几率 40% :
短暂存在
从 24日的 12点(UTC)到 24日的 22点(UTC)
能見度: 3000
散云层高于2000英尺, 塔状积云.
阵雨
几率 30% :
短暂存在
从 24日的 20点(UTC)到 25日的 12点(UTC)
风速2节,风向多变
几率 30% :
短暂存在
从 24日的 22点(UTC)到 25日的 10点(UTC)
能見度: 4000
散云层高于1800英尺, 塔状积云.
阵雨

TAF: TFFR 241100Z 2412/2512 15010KT 9999 SCT015 BKN030 PROB40 TEMPO 2412/2422 3000 SHRA SCT020TCU PROB30 TEMPO 2420/2512 VRB02KT PROB30 TEMPO 2422/2510 4000 SHRA SCT018TCU

超过4000个机场的气象观测和天气预报(METAR&TAF报告)。

可查询的气象台以黄色和红色小点在地图上表示。

将鼠标移到小点上方,可查看气象台名称。

然后点击查看天气观测和预报。

如需切换地图:点击带黑十字的绿色按钮放大地图;点击带横线的绿色按钮缩小地图;或者点击绿色箭头查看邻近地区的地图。


METAR-TAF: